sensor_id;sensor_type;location;lat;lon;timestamp;temperature;humidity
8114;DHT22;4099;52.684;9.918;2022-10-17T00:01:38;12.60;99.90
8114;DHT22;4099;52.684;9.918;2022-10-17T00:06:42;12.60;99.90
8114;DHT22;4099;52.684;9.918;2022-10-17T00:11:44;12.60;99.90
8114;DHT22;4099;52.684;9.918;2022-10-17T00:16:46;12.50;99.90
8114;DHT22;4099;52.684;9.918;2022-10-17T00:21:49;12.30;99.90
8114;DHT22;4099;52.684;9.918;2022-10-17T00:26:51;12.00;99.90
8114;DHT22;4099;52.684;9.918;2022-10-17T00:31:53;12.00;99.90
8114;DHT22;4099;52.684;9.918;2022-10-17T00:36:57;11.90;99.90
8114;DHT22;4099;52.684;9.918;2022-10-17T00:41:59;11.80;99.90
8114;DHT22;4099;52.684;9.918;2022-10-17T00:47:04;11.80;99.90
8114;DHT22;4099;52.684;9.918;2022-10-17T00:52:12;11.70;99.90
8114;DHT22;4099;52.684;9.918;2022-10-17T00:57:15;11.70;99.90
8114;DHT22;4099;52.684;9.918;2022-10-17T01:02:20;11.60;99.90
8114;DHT22;4099;52.684;9.918;2022-10-17T01:07:23;11.60;99.90
8114;DHT22;4099;52.684;9.918;2022-10-17T01:12:31;11.60;99.90
8114;DHT22;4099;52.684;9.918;2022-10-17T01:17:45;11.60;99.90
8114;DHT22;4099;52.684;9.918;2022-10-17T01:23:00;11.50;99.90
8114;DHT22;4099;52.684;9.918;2022-10-17T01:28:17;11.40;99.90
8114;DHT22;4099;52.684;9.918;2022-10-17T01:33:29;11.30;99.90
8114;DHT22;4099;52.684;9.918;2022-10-17T01:38:37;11.20;99.90
8114;DHT22;4099;52.684;9.918;2022-10-17T01:43:48;11.10;99.90
8114;DHT22;4099;52.684;9.918;2022-10-17T01:48:51;11.00;99.90
8114;DHT22;4099;52.684;9.918;2022-10-17T01:53:59;11.00;99.90
8114;DHT22;4099;52.684;9.918;2022-10-17T01:59:07;10.90;99.90
8114;DHT22;4099;52.684;9.918;2022-10-17T02:04:13;11.00;99.90
8114;DHT22;4099;52.684;9.918;2022-10-17T02:09:19;11.10;99.90
8114;DHT22;4099;52.684;9.918;2022-10-17T02:14:29;10.90;99.90
8114;DHT22;4099;52.684;9.918;2022-10-17T02:19:44;10.90;99.90
8114;DHT22;4099;52.684;9.918;2022-10-17T02:24:54;11.00;99.90
8114;DHT22;4099;52.684;9.918;2022-10-17T02:30:04;10.90;99.90
8114;DHT22;4099;52.684;9.918;2022-10-17T02:35:10;10.80;99.90
8114;DHT22;4099;52.684;9.918;2022-10-17T02:40:16;10.80;99.90
8114;DHT22;4099;52.684;9.918;2022-10-17T02:45:19;10.60;99.90
8114;DHT22;4099;52.684;9.918;2022-10-17T02:50:27;10.50;99.90
8114;DHT22;4099;52.684;9.918;2022-10-17T02:55:38;10.40;99.90
8114;DHT22;4099;52.684;9.918;2022-10-17T03:00:41;10.50;99.90
8114;DHT22;4099;52.684;9.918;2022-10-17T03:05:45;10.50;99.90
8114;DHT22;4099;52.684;9.918;2022-10-17T03:10:48;10.40;99.90
8114;DHT22;4099;52.684;9.918;2022-10-17T03:15:50;10.40;99.90
8114;DHT22;4099;52.684;9.918;2022-10-17T03:20:53;10.30;99.90
8114;DHT22;4099;52.684;9.918;2022-10-17T03:25:55;10.20;99.90
8114;DHT22;4099;52.684;9.918;2022-10-17T03:30:58;10.20;99.90
8114;DHT22;4099;52.684;9.918;2022-10-17T03:36:05;10.20;99.90
8114;DHT22;4099;52.684;9.918;2022-10-17T03:41:08;10.10;99.90
8114;DHT22;4099;52.684;9.918;2022-10-17T03:46:12;10.00;99.90
8114;DHT22;4099;52.684;9.918;2022-10-17T03:51:16;10.10;99.90
8114;DHT22;4099;52.684;9.918;2022-10-17T03:56:24;10.10;99.90
8114;DHT22;4099;52.684;9.918;2022-10-17T04:01:43;10.10;99.90
8114;DHT22;4099;52.684;9.918;2022-10-17T04:06:48;10.00;99.90
8114;DHT22;4099;52.684;9.918;2022-10-17T04:11:50;10.00;99.90
8114;DHT22;4099;52.684;9.918;2022-10-17T04:16:52;9.90;99.90
8114;DHT22;4099;52.684;9.918;2022-10-17T04:21:56;9.90;99.90
8114;DHT22;4099;52.684;9.918;2022-10-17T04:27:00;9.80;99.90
8114;DHT22;4099;52.684;9.918;2022-10-17T04:32:06;9.90;99.90
8114;DHT22;4099;52.684;9.918;2022-10-17T04:37:19;9.90;99.90
8114;DHT22;4099;52.684;9.918;2022-10-17T04:42:23;9.90;99.90
8114;DHT22;4099;52.684;9.918;2022-10-17T04:47:27;9.80;99.90
8114;DHT22;4099;52.684;9.918;2022-10-17T04:52:33;9.90;99.90
8114;DHT22;4099;52.684;9.918;2022-10-17T04:57:37;9.90;99.90
8114;DHT22;4099;52.684;9.918;2022-10-17T05:02:54;9.80;99.90
8114;DHT22;4099;52.684;9.918;2022-10-17T05:07:57;9.80;99.90
8114;DHT22;4099;52.684;9.918;2022-10-17T05:13:03;9.90;99.90
8114;DHT22;4099;52.684;9.918;2022-10-17T05:18:07;9.90;99.90
8114;DHT22;4099;52.684;9.918;2022-10-17T05:23:11;9.90;99.90
8114;DHT22;4099;52.684;9.918;2022-10-17T05:28:16;9.90;99.90
8114;DHT22;4099;52.684;9.918;2022-10-17T05:33:21;9.90;99.90
8114;DHT22;4099;52.684;9.918;2022-10-17T05:38:27;10.00;99.90
8114;DHT22;4099;52.684;9.918;2022-10-17T05:43:30;10.00;99.90
8114;DHT22;4099;52.684;9.918;2022-10-17T05:48:33;10.10;99.90
8114;DHT22;4099;52.684;9.918;2022-10-17T05:53:38;10.20;99.90
8114;DHT22;4099;52.684;9.918;2022-10-17T05:58:45;10.10;99.90
8114;DHT22;4099;52.684;9.918;2022-10-17T06:03:59;10.20;99.90
8114;DHT22;4099;52.684;9.918;2022-10-17T06:09:03;10.30;99.90
8114;DHT22;4099;52.684;9.918;2022-10-17T06:14:09;10.30;99.90
8114;DHT22;4099;52.684;9.918;2022-10-17T06:19:13;10.20;99.90
8114;DHT22;4099;52.684;9.918;2022-10-17T06:24:16;10.20;99.90
8114;DHT22;4099;52.684;9.918;2022-10-17T06:29:19;10.20;99.90
8114;DHT22;4099;52.684;9.918;2022-10-17T06:34:27;10.30;99.90
8114;DHT22;4099;52.684;9.918;2022-10-17T06:39:30;10.50;99.90
8114;DHT22;4099;52.684;9.918;2022-10-17T06:44:40;10.60;99.90
8114;DHT22;4099;52.684;9.918;2022-10-17T06:50:03;10.80;99.90
8114;DHT22;4099;52.684;9.918;2022-10-17T06:55:12;10.90;99.90
8114;DHT22;4099;52.684;9.918;2022-10-17T07:00:34;11.10;99.90
8114;DHT22;4099;52.684;9.918;2022-10-17T07:05:36;11.40;99.90
8114;DHT22;4099;52.684;9.918;2022-10-17T07:10:40;11.80;99.90
8114;DHT22;4099;52.684;9.918;2022-10-17T07:15:43;12.10;99.90
8114;DHT22;4099;52.684;9.918;2022-10-17T07:20:52;12.50;99.90
8114;DHT22;4099;52.684;9.918;2022-10-17T07:26:00;12.60;99.90
8114;DHT22;4099;52.684;9.918;2022-10-17T07:31:04;12.80;99.90
8114;DHT22;4099;52.684;9.918;2022-10-17T07:36:07;13.30;99.90
8114;DHT22;4099;52.684;9.918;2022-10-17T07:41:11;13.70;99.90
8114;DHT22;4099;52.684;9.918;2022-10-17T07:46:14;14.10;99.90
8114;DHT22;4099;52.684;9.918;2022-10-17T07:51:16;14.40;99.90
8114;DHT22;4099;52.684;9.918;2022-10-17T07:56:21;14.70;99.90
8114;DHT22;4099;52.684;9.918;2022-10-17T08:01:24;15.00;99.90
8114;DHT22;4099;52.684;9.918;2022-10-17T08:06:27;15.40;99.90
8114;DHT22;4099;52.684;9.918;2022-10-17T08:11:31;15.50;99.90
8114;DHT22;4099;52.684;9.918;2022-10-17T08:16:33;15.80;99.90
8114;DHT22;4099;52.684;9.918;2022-10-17T08:21:35;16.00;99.90
8114;DHT22;4099;52.684;9.918;2022-10-17T08:26:38;16.20;99.90
8114;DHT22;4099;52.684;9.918;2022-10-17T08:31:40;16.50;99.90
8114;DHT22;4099;52.684;9.918;2022-10-17T08:36:42;16.70;99.90
8114;DHT22;4099;52.684;9.918;2022-10-17T08:41:58;16.90;99.90
8114;DHT22;4099;52.684;9.918;2022-10-17T08:47:07;17.20;99.90
8114;DHT22;4099;52.684;9.918;2022-10-17T08:52:15;17.40;99.90
8114;DHT22;4099;52.684;9.918;2022-10-17T08:57:20;17.70;99.90
8114;DHT22;4099;52.684;9.918;2022-10-17T09:02:36;17.80;99.90
8114;DHT22;4099;52.684;9.918;2022-10-17T09:07:42;18.00;99.90
8114;DHT22;4099;52.684;9.918;2022-10-17T09:12:57;18.10;99.90
8114;DHT22;4099;52.684;9.918;2022-10-17T09:18:08;18.30;99.90
8114;DHT22;4099;52.684;9.918;2022-10-17T09:23:15;18.50;99.90
8114;DHT22;4099;52.684;9.918;2022-10-17T09:28:21;18.70;99.90
8114;DHT22;4099;52.684;9.918;2022-10-17T09:33:26;18.90;99.90
8114;DHT22;4099;52.684;9.918;2022-10-17T09:38:40;19.10;99.90
8114;DHT22;4099;52.684;9.918;2022-10-17T09:43:44;19.20;99.90
8114;DHT22;4099;52.684;9.918;2022-10-17T09:48:50;19.30;99.90
8114;DHT22;4099;52.684;9.918;2022-10-17T09:53:55;19.50;99.90
8114;DHT22;4099;52.684;9.918;2022-10-17T09:58:59;19.70;99.90
8114;DHT22;4099;52.684;9.918;2022-10-17T10:04:12;19.80;99.90
8114;DHT22;4099;52.684;9.918;2022-10-17T10:09:21;19.90;99.90
8114;DHT22;4099;52.684;9.918;2022-10-17T10:14:31;20.20;99.90
8114;DHT22;4099;52.684;9.918;2022-10-17T10:19:35;20.50;99.90
8114;DHT22;4099;52.684;9.918;2022-10-17T10:24:37;20.60;99.90
8114;DHT22;4099;52.684;9.918;2022-10-17T10:29:42;20.60;99.90
8114;DHT22;4099;52.684;9.918;2022-10-17T10:34:47;20.80;99.90
8114;DHT22;4099;52.684;9.918;2022-10-17T10:39:52;21.00;98.10
8114;DHT22;4099;52.684;9.918;2022-10-17T10:45:02;21.00;56.50
8114;DHT22;4099;52.684;9.918;2022-10-17T10:50:20;21.00;32.10
8114;DHT22;4099;52.684;9.918;2022-10-17T10:55:26;21.10;37.70
8114;DHT22;4099;52.684;9.918;2022-10-17T11:00:34;21.40;1.00
8114;DHT22;4099;52.684;9.918;2022-10-17T11:05:43;21.60;1.00
8114;DHT22;4099;52.684;9.918;2022-10-17T11:10:57;21.60;1.00
8114;DHT22;4099;52.684;9.918;2022-10-17T11:16:13;21.60;1.00
8114;DHT22;4099;52.684;9.918;2022-10-17T11:21:20;21.60;1.00
8114;DHT22;4099;52.684;9.918;2022-10-17T11:26:27;21.60;1.00
8114;DHT22;4099;52.684;9.918;2022-10-17T11:31:38;21.80;1.00
8114;DHT22;4099;52.684;9.918;2022-10-17T11:36:43;21.90;1.00
8114;DHT22;4099;52.684;9.918;2022-10-17T11:41:48;22.00;1.00
8114;DHT22;4099;52.684;9.918;2022-10-17T11:46:55;22.10;1.00
8114;DHT22;4099;52.684;9.918;2022-10-17T11:52:05;22.10;1.00
8114;DHT22;4099;52.684;9.918;2022-10-17T11:57:31;22.00;1.00
8114;DHT22;4099;52.684;9.918;2022-10-17T12:02:44;21.80;1.00
8114;DHT22;4099;52.684;9.918;2022-10-17T12:07:51;21.80;1.00
8114;DHT22;4099;52.684;9.918;2022-10-17T12:12:55;21.80;1.00
8114;DHT22;4099;52.684;9.918;2022-10-17T12:18:00;21.80;1.00
8114;DHT22;4099;52.684;9.918;2022-10-17T12:23:22;21.80;1.00
8114;DHT22;4099;52.684;9.918;2022-10-17T12:28:30;21.80;1.00
8114;DHT22;4099;52.684;9.918;2022-10-17T12:33:37;22.10;1.00
8114;DHT22;4099;52.684;9.918;2022-10-17T12:38:39;22.30;1.00
8114;DHT22;4099;52.684;9.918;2022-10-17T12:43:50;22.10;1.00
8114;DHT22;4099;52.684;9.918;2022-10-17T12:49:02;22.10;1.00
8114;DHT22;4099;52.684;9.918;2022-10-17T12:54:09;22.30;1.00
8114;DHT22;4099;52.684;9.918;2022-10-17T12:59:15;22.40;1.00
8114;DHT22;4099;52.684;9.918;2022-10-17T13:04:20;22.20;1.00
8114;DHT22;4099;52.684;9.918;2022-10-17T13:09:25;22.00;1.00
8114;DHT22;4099;52.684;9.918;2022-10-17T13:14:27;21.70;1.00
8114;DHT22;4099;52.684;9.918;2022-10-17T13:19:43;21.60;1.00
8114;DHT22;4099;52.684;9.918;2022-10-17T13:24:46;21.70;1.00
8114;DHT22;4099;52.684;9.918;2022-10-17T13:29:48;21.60;1.00
8114;DHT22;4099;52.684;9.918;2022-10-17T13:35:09;21.50;1.00
8114;DHT22;4099;52.684;9.918;2022-10-17T13:40:16;21.30;1.00
8114;DHT22;4099;52.684;9.918;2022-10-17T13:45:21;21.10;1.00
8114;DHT22;4099;52.684;9.918;2022-10-17T13:50:30;21.20;1.00
8114;DHT22;4099;52.684;9.918;2022-10-17T13:55:33;21.20;1.00
8114;DHT22;4099;52.684;9.918;2022-10-17T14:00:35;21.20;6.30
8114;DHT22;4099;52.684;9.918;2022-10-17T14:05:59;21.10;12.10
8114;DHT22;4099;52.684;9.918;2022-10-17T14:11:13;21.10;32.30
8114;DHT22;4099;52.684;9.918;2022-10-17T14:16:15;20.90;99.90
8114;DHT22;4099;52.684;9.918;2022-10-17T14:21:20;20.90;41.70
8114;DHT22;4099;52.684;9.918;2022-10-17T14:26:23;20.70;99.90
8114;DHT22;4099;52.684;9.918;2022-10-17T14:31:29;20.80;99.90
8114;DHT22;4099;52.684;9.918;2022-10-17T14:36:36;20.80;99.90
8114;DHT22;4099;52.684;9.918;2022-10-17T14:41:42;20.70;99.90
8114;DHT22;4099;52.684;9.918;2022-10-17T14:46:47;20.50;99.90
8114;DHT22;4099;52.684;9.918;2022-10-17T14:52:12;20.40;99.90
8114;DHT22;4099;52.684;9.918;2022-10-17T14:57:16;20.30;99.90
8114;DHT22;4099;52.684;9.918;2022-10-17T15:02:18;20.20;99.90
8114;DHT22;4099;52.684;9.918;2022-10-17T15:07:22;20.00;99.90
8114;DHT22;4099;52.684;9.918;2022-10-17T15:12:25;19.90;99.90
8114;DHT22;4099;52.684;9.918;2022-10-17T15:17:29;19.70;99.90
8114;DHT22;4099;52.684;9.918;2022-10-17T15:22:34;19.60;99.90
8114;DHT22;4099;52.684;9.918;2022-10-17T15:27:36;19.50;99.90
8114;DHT22;4099;52.684;9.918;2022-10-17T15:32:38;19.30;99.90
8114;DHT22;4099;52.684;9.918;2022-10-17T15:37:43;19.10;99.90
8114;DHT22;4099;52.684;9.918;2022-10-17T15:42:46;18.80;99.90
8114;DHT22;4099;52.684;9.918;2022-10-17T15:47:50;18.70;99.90
8114;DHT22;4099;52.684;9.918;2022-10-17T15:52:55;18.60;99.90
8114;DHT22;4099;52.684;9.918;2022-10-17T15:57:57;18.60;99.90
8114;DHT22;4099;52.684;9.918;2022-10-17T16:03:00;18.50;99.90
8114;DHT22;4099;52.684;9.918;2022-10-17T16:08:03;18.50;99.90
8114;DHT22;4099;52.684;9.918;2022-10-17T16:13:10;18.40;99.90
8114;DHT22;4099;52.684;9.918;2022-10-17T16:18:14;18.30;99.90
8114;DHT22;4099;52.684;9.918;2022-10-17T16:23:21;18.30;99.90
8114;DHT22;4099;52.684;9.918;2022-10-17T16:28:23;18.20;99.90
8114;DHT22;4099;52.684;9.918;2022-10-17T16:33:26;18.10;99.90
8114;DHT22;4099;52.684;9.918;2022-10-17T16:38:30;18.00;99.90
8114;DHT22;4099;52.684;9.918;2022-10-17T16:43:33;17.90;99.90
8114;DHT22;4099;52.684;9.918;2022-10-17T16:48:37;17.80;99.90
8114;DHT22;4099;52.684;9.918;2022-10-17T16:53:40;17.80;99.90
8114;DHT22;4099;52.684;9.918;2022-10-17T16:58:44;17.80;99.90
8114;DHT22;4099;52.684;9.918;2022-10-17T17:03:47;17.70;99.90
8114;DHT22;4099;52.684;9.918;2022-10-17T17:08:51;17.70;99.90
8114;DHT22;4099;52.684;9.918;2022-10-17T17:13:54;17.80;99.90
8114;DHT22;4099;52.684;9.918;2022-10-17T17:18:59;17.80;99.90
8114;DHT22;4099;52.684;9.918;2022-10-17T17:24:03;17.90;99.90
8114;DHT22;4099;52.684;9.918;2022-10-17T17:29:06;17.80;99.90
8114;DHT22;4099;52.684;9.918;2022-10-17T17:34:09;17.90;99.90
8114;DHT22;4099;52.684;9.918;2022-10-17T17:39:13;17.90;99.90
8114;DHT22;4099;52.684;9.918;2022-10-17T17:44:16;17.90;99.90
8114;DHT22;4099;52.684;9.918;2022-10-17T17:49:19;17.80;99.90
8114;DHT22;4099;52.684;9.918;2022-10-17T17:54:25;17.80;99.90
8114;DHT22;4099;52.684;9.918;2022-10-17T17:59:28;17.70;99.90
8114;DHT22;4099;52.684;9.918;2022-10-17T18:04:31;17.70;99.90
8114;DHT22;4099;52.684;9.918;2022-10-17T18:09:35;17.60;99.90
8114;DHT22;4099;52.684;9.918;2022-10-17T18:14:37;17.70;99.90
8114;DHT22;4099;52.684;9.918;2022-10-17T18:19:40;17.60;99.90
8114;DHT22;4099;52.684;9.918;2022-10-17T18:24:44;17.50;99.90
8114;DHT22;4099;52.684;9.918;2022-10-17T18:29:46;17.40;99.90
8114;DHT22;4099;52.684;9.918;2022-10-17T18:34:50;17.20;99.90
8114;DHT22;4099;52.684;9.918;2022-10-17T18:39:54;17.10;99.90
8114;DHT22;4099;52.684;9.918;2022-10-17T18:44:57;17.10;99.90
8114;DHT22;4099;52.684;9.918;2022-10-17T18:49:59;17.10;99.90
8114;DHT22;4099;52.684;9.918;2022-10-17T18:55:04;17.00;99.90
8114;DHT22;4099;52.684;9.918;2022-10-17T19:00:08;17.10;99.90
8114;DHT22;4099;52.684;9.918;2022-10-17T19:05:11;17.10;99.90
8114;DHT22;4099;52.684;9.918;2022-10-17T19:10:15;17.30;99.90
8114;DHT22;4099;52.684;9.918;2022-10-17T19:15:17;17.20;99.90
8114;DHT22;4099;52.684;9.918;2022-10-17T19:20:20;17.20;99.90
8114;DHT22;4099;52.684;9.918;2022-10-17T19:25:24;17.20;99.90
8114;DHT22;4099;52.684;9.918;2022-10-17T19:30:29;17.20;99.90
8114;DHT22;4099;52.684;9.918;2022-10-17T19:35:31;17.20;99.90
8114;DHT22;4099;52.684;9.918;2022-10-17T19:40:39;17.20;99.90
8114;DHT22;4099;52.684;9.918;2022-10-17T19:45:41;17.10;99.90
8114;DHT22;4099;52.684;9.918;2022-10-17T19:50:44;17.00;99.90
8114;DHT22;4099;52.684;9.918;2022-10-17T19:55:48;16.90;99.90
8114;DHT22;4099;52.684;9.918;2022-10-17T20:00:52;16.90;99.90
8114;DHT22;4099;52.684;9.918;2022-10-17T20:05:55;17.00;99.90
8114;DHT22;4099;52.684;9.918;2022-10-17T20:11:03;16.90;99.90
8114;DHT22;4099;52.684;9.918;2022-10-17T20:16:07;17.00;99.90
8114;DHT22;4099;52.684;9.918;2022-10-17T20:21:13;16.90;99.90
8114;DHT22;4099;52.684;9.918;2022-10-17T20:26:18;16.80;99.90
8114;DHT22;4099;52.684;9.918;2022-10-17T20:31:21;16.70;99.90
8114;DHT22;4099;52.684;9.918;2022-10-17T20:36:24;16.70;99.90
8114;DHT22;4099;52.684;9.918;2022-10-17T20:41:28;16.60;99.90
8114;DHT22;4099;52.684;9.918;2022-10-17T20:46:30;16.50;99.90
8114;DHT22;4099;52.684;9.918;2022-10-17T20:51:33;16.40;99.90
8114;DHT22;4099;52.684;9.918;2022-10-17T20:56:37;16.30;99.90
8114;DHT22;4099;52.684;9.918;2022-10-17T21:01:40;16.30;99.90
8114;DHT22;4099;52.684;9.918;2022-10-17T21:06:43;16.40;99.90
8114;DHT22;4099;52.684;9.918;2022-10-17T21:11:49;16.50;99.90
8114;DHT22;4099;52.684;9.918;2022-10-17T21:16:54;16.60;99.90
8114;DHT22;4099;52.684;9.918;2022-10-17T21:21:57;16.60;99.90
8114;DHT22;4099;52.684;9.918;2022-10-17T21:27:01;16.70;99.90
8114;DHT22;4099;52.684;9.918;2022-10-17T21:32:03;16.60;99.90
8114;DHT22;4099;52.684;9.918;2022-10-17T21:37:07;16.60;99.90
8114;DHT22;4099;52.684;9.918;2022-10-17T21:42:11;16.50;99.90
8114;DHT22;4099;52.684;9.918;2022-10-17T21:47:13;16.40;99.90
8114;DHT22;4099;52.684;9.918;2022-10-17T21:52:16;16.40;99.90
8114;DHT22;4099;52.684;9.918;2022-10-17T21:57:19;16.40;99.90
8114;DHT22;4099;52.684;9.918;2022-10-17T22:02:22;16.40;99.90
8114;DHT22;4099;52.684;9.918;2022-10-17T22:07:24;16.40;99.90
8114;DHT22;4099;52.684;9.918;2022-10-17T22:12:28;16.40;99.90
8114;DHT22;4099;52.684;9.918;2022-10-17T22:17:31;16.30;99.90
8114;DHT22;4099;52.684;9.918;2022-10-17T22:22:33;16.20;99.90
8114;DHT22;4099;52.684;9.918;2022-10-17T22:27:37;16.20;99.90
8114;DHT22;4099;52.684;9.918;2022-10-17T22:32:39;16.00;99.90
8114;DHT22;4099;52.684;9.918;2022-10-17T22:37:42;16.00;99.90
8114;DHT22;4099;52.684;9.918;2022-10-17T22:42:46;15.90;99.90
8114;DHT22;4099;52.684;9.918;2022-10-17T22:47:49;15.90;99.90
8114;DHT22;4099;52.684;9.918;2022-10-17T22:52:51;15.80;99.90
8114;DHT22;4099;52.684;9.918;2022-10-17T22:57:55;15.80;99.90
8114;DHT22;4099;52.684;9.918;2022-10-17T23:02:57;15.70;99.90
8114;DHT22;4099;52.684;9.918;2022-10-17T23:07:59;15.70;99.90
8114;DHT22;4099;52.684;9.918;2022-10-17T23:13:03;15.60;99.90
8114;DHT22;4099;52.684;9.918;2022-10-17T23:18:06;15.60;99.90
8114;DHT22;4099;52.684;9.918;2022-10-17T23:23:10;15.60;99.90
8114;DHT22;4099;52.684;9.918;2022-10-17T23:28:14;15.60;99.90
8114;DHT22;4099;52.684;9.918;2022-10-17T23:33:16;15.50;99.90
8114;DHT22;4099;52.684;9.918;2022-10-17T23:38:18;15.40;99.90
8114;DHT22;4099;52.684;9.918;2022-10-17T23:43:21;15.20;99.90
8114;DHT22;4099;52.684;9.918;2022-10-17T23:48:23;15.20;99.90
8114;DHT22;4099;52.684;9.918;2022-10-17T23:53:25;15.10;99.90
8114;DHT22;4099;52.684;9.918;2022-10-17T23:58:29;15.10;99.90
